Wetterdaten: Woche 19.01.15 - 25.01.15 (KW4)
Datum Zeit Temperatur Luftfeuchte Luftdruck Niederschlag Windrichtung Sonnenschein Solar Wind
19.01.2015 00:00 -0,6 C 96 % 1013,3 hPa 0,0 l/m N 0,00 h 0 W/m 0,7 km/h (0 Bft)
19.01.2015 01:00 -0,8 C 95 % 1013,2 hPa 0,0 l/m N 0,00 h 0 W/m 1,7 km/h (1 Bft)
19.01.2015 02:00 -1,0 C 95 % 1013,0 hPa 0,0 l/m N 0,00 h 0 W/m 0,7 km/h (0 Bft)
19.01.2015 03:00 -1,2 C 95 % 1012,3 hPa 0,0 l/m N 0,00 h 0 W/m 0,8 km/h (0 Bft)
19.01.2015 04:00 -1,4 C 95 % 1012,1 hPa 0,0 l/m S-SO 0,00 h 0 W/m 0,9 km/h (0 Bft)
19.01.2015 05:00 -1,5 C 95 % 1012,0 hPa 0,0 l/m N 0,00 h 0 W/m 0,4 km/h (0 Bft)
19.01.2015 06:00 -1,6 C 95 % 1012,2 hPa 0,0 l/m N 0,00 h 0 W/m 0,5 km/h (0 Bft)
19.01.2015 07:00 -1,6 C 95 % 1012,1 hPa 0,0 l/m N 0,00 h 0 W/m 1,5 km/h (1 Bft)
19.01.2015 08:00 -1,6 C 95 % 1012,5 hPa 0,0 l/m N 0,00 h 12 W/m 2,0 km/h (1 Bft)
19.01.2015 09:00 -1,6 C 95 % 1012,5 hPa 0,0 l/m S-SO 0,00 h 34 W/m 2,8 km/h (1 Bft)
19.01.2015 10:00 -1,4 C 95 % 1012,7 hPa 0,0 l/m S-SO 0,00 h 102 W/m 4,0 km/h (1 Bft)
19.01.2015 11:00 -1,1 C 93 % 1012,5 hPa 0,0 l/m S-SO 0,00 h 81 W/m 1,6 km/h (1 Bft)
19.01.2015 12:00 -0,8 C 93 % 1012,1 hPa 0,0 l/m S 0,00 h 154 W/m 3,6 km/h (1 Bft)
19.01.2015 13:00 -0,1 C 92 % 1011,5 hPa 0,0 l/m S 0,58 h 261 W/m 2,7 km/h (1 Bft)
19.01.2015 14:00 0,3 C 91 % 1011,0 hPa 0,0 l/m S 0,08 h 91 W/m 2,7 km/h (1 Bft)
19.01.2015 15:00 0,2 C 92 % 1011,0 hPa 0,0 l/m S 0,00 h 68 W/m 2,1 km/h (1 Bft)
19.01.2015 16:00 0,1 C 93 % 1010,8 hPa 0,0 l/m N 0,00 h 19 W/m 0,5 km/h (0 Bft)
19.01.2015 17:00 -0,1 C 93 % 1010,8 hPa 0,0 l/m N 0,00 h 0 W/m 0,4 km/h (0 Bft)
19.01.2015 18:00 -0,3 C 94 % 1010,6 hPa 0,0 l/m N 0,00 h 0 W/m 0,1 km/h (0 Bft)
19.01.2015 19:00 -0,4 C 94 % 1010,3 hPa 0,0 l/m N 0,00 h 0 W/m 0,0 km/h (0 Bft)
19.01.2015 20:00 -0,3 C 95 % 1009,9 hPa 0,0 l/m N 0,00 h 0 W/m 0,7 km/h (0 Bft)
19.01.2015 21:00 -0,7 C 95 % 1009,7 hPa 0,0 l/m N 0,00 h 0 W/m 0,0 km/h (0 Bft)
19.01.2015 22:00 -1,1 C 95 % 1010,0 hPa 0,0 l/m N 0,00 h 0 W/m 0,3 km/h (0 Bft)
19.01.2015 23:00 -1,3 C 95 % 1010,0 hPa 0,0 l/m N 0,00 h 0 W/m 0,0 km/h (0 Bft)
20.01.2015 00:00 -1,3 C 96 % 1010,1 hPa 0,0 l/m N 0,00 h 0 W/m 0,0 km/h (0 Bft)
20.01.2015 01:00 -1,2 C 96 % 1010,0 hPa 0,0 l/m N 0,00 h 0 W/m 0,0 km/h (0 Bft)
20.01.2015 02:00 -1,2 C 96 % 1009,9 hPa 0,0 l/m N 0,00 h 0 W/m 0,0 km/h (0 Bft)
20.01.2015 03:00 -1,1 C 96 % 1009,7 hPa 0,0 l/m N 0,00 h 0 W/m 0,0 km/h (0 Bft)
20.01.2015 04:00 -1,0 C 96 % 1009,4 hPa 0,0 l/m N 0,00 h 0 W/m 0,1 km/h (0 Bft)
20.01.2015 05:00 -1,0 C 97 % 1009,4 hPa 0,0 l/m N 0,00 h 0 W/m 0,0 km/h (0 Bft)
20.01.2015 06:00 -0,9 C 97 % 1009,4 hPa 0,0 l/m N 0,00 h 0 W/m 0,0 km/h (0 Bft)
20.01.2015 07:00 -0,8 C 97 % 1009,7 hPa 1,0 l/m N 0,00 h 0 W/m 0,0 km/h (0 Bft)
20.01.2015 08:00 -0,7 C 97 % 1009,8 hPa 0,6 l/m N 0,00 h 10 W/m 0,0 km/h (0 Bft)
20.01.2015 09:00 -0,4 C 98 % 1009,9 hPa 0,0 l/m N 0,00 h 27 W/m 0,0 km/h (0 Bft)
20.01.2015 10:00 0,3 C 98 % 1010,1 hPa 0,0 l/m N 0,25 h 116 W/m 1,1 km/h (0 Bft)
20.01.2015 11:00 0,8 C 98 % 1010,1 hPa 0,2 l/m N 0,00 h 107 W/m 2,1 km/h (1 Bft)
20.01.2015 12:00 0,7 C 97 % 1010,1 hPa 0,2 l/m N 0,00 h 88 W/m 1,6 km/h (1 Bft)
20.01.2015 13:00 0,8 C 98 % 1010,0 hPa 0,2 l/m N 0,00 h 82 W/m 1,6 km/h (1 Bft)
20.01.2015 14:00 0,7 C 98 % 1010,1 hPa 0,0 l/m N 0,00 h 64 W/m 0,4 km/h (0 Bft)
20.01.2015 15:00 0,7 C 98 % 1010,1 hPa 0,2 l/m N 0,00 h 35 W/m 0,1 km/h (0 Bft)
20.01.2015 16:00 0,7 C 98 % 1010,3 hPa 0,2 l/m N 0,00 h 10 W/m 0,0 km/h (0 Bft)
20.01.2015 17:00 0,7 C 98 % 1010,3 hPa 0,0 l/m N 0,00 h 0 W/m 1,1 km/h (0 Bft)
20.01.2015 18:00 0,6 C 98 % 1010,6 hPa 0,0 l/m N 0,00 h 0 W/m 1,9 km/h (1 Bft)
20.01.2015 19:00 0,5 C 98 % 1010,7 hPa 0,0 l/m O 0,00 h 0 W/m 5,2 km/h (1 Bft)
20.01.2015 20:00 0,3 C 98 % 1010,8 hPa 0,0 l/m O-NO 0,00 h 0 W/m 5,9 km/h (2 Bft)
20.01.2015 21:00 0,2 C 98 % 1010,9 hPa 0,0 l/m O-NO 0,00 h 0 W/m 4,8 km/h (1 Bft)
20.01.2015 22:00 0,1 C 98 % 1010,9 hPa 0,0 l/m O-NO 0,00 h 0 W/m 6,9 km/h (2 Bft)
20.01.2015 23:00 -0,1 C 98 % 1011,1 hPa 0,0 l/m O-NO 0,00 h 0 W/m 7,3 km/h (2 Bft)
21.01.2015 00:00 -0,2 C 98 % 1011,0 hPa 0,0 l/m NO 0,00 h 0 W/m 7,9 km/h (2 Bft)
21.01.2015 01:00 -0,3 C 98 % 1010,9 hPa 0,0 l/m O-NO 0,00 h 0 W/m 8,2 km/h (2 Bft)
21.01.2015 02:00 -0,3 C 98 % 1010,7 hPa 0,0 l/m O-NO 0,00 h 0 W/m 4,8 km/h (1 Bft)
21.01.2015 03:00 -0,3 C 98 % 1010,4 hPa 0,0 l/m O-NO 0,00 h 0 W/m 5,3 km/h (1 Bft)
21.01.2015 04:00 -0,2 C 98 % 1010,0 hPa 0,0 l/m O-NO 0,00 h 0 W/m 7,4 km/h (2 Bft)
21.01.2015 05:00 -0,3 C 98 % 1009,9 hPa 0,0 l/m O-SO 0,00 h 0 W/m 10,7 km/h (2 Bft)
21.01.2015 06:00 -0,3 C 98 % 1009,8 hPa 0,0 l/m O-SO 0,00 h 0 W/m 8,4 km/h (2 Bft)
21.01.2015 07:00 -0,4 C 97 % 1009,6 hPa 0,0 l/m O-SO 0,00 h 0 W/m 11,5 km/h (2 Bft)
21.01.2015 08:00 -0,7 C 96 % 1009,5 hPa 0,0 l/m O-SO 0,00 h 10 W/m 12,1 km/h (2 Bft)
21.01.2015 09:00 -0,7 C 95 % 1009,5 hPa 0,0 l/m O-NO 0,00 h 31 W/m 11,6 km/h (2 Bft)
21.01.2015 10:00 -0,6 C 95 % 1009,7 hPa 0,0 l/m O 0,00 h 55 W/m 12,6 km/h (3 Bft)
21.01.2015 11:00 -0,3 C 93 % 1009,4 hPa 0,0 l/m O 0,00 h 79 W/m 13,3 km/h (3 Bft)
21.01.2015 12:00 -0,3 C 92 % 1009,0 hPa 0,0 l/m O 0,00 h 98 W/m 13,6 km/h (3 Bft)
21.01.2015 13:00 -0,3 C 91 % 1008,6 hPa 0,0 l/m O-NO 0,00 h 73 W/m 13,8 km/h (3 Bft)
21.01.2015 14:00 -0,4 C 91 % 1007,9 hPa 0,0 l/m O-NO 0,00 h 56 W/m 15,8 km/h (3 Bft)
21.01.2015 15:00 -0,4 C 92 % 1007,8 hPa 0,0 l/m O 0,00 h 29 W/m 14,8 km/h (3 Bft)
21.01.2015 16:00 -0,5 C 92 % 1007,8 hPa 0,0 l/m O 0,00 h 15 W/m 15,2 km/h (3 Bft)
21.01.2015 17:00 -0,5 C 92 % 1007,7 hPa 0,0 l/m O 0,00 h 0 W/m 13,6 km/h (3 Bft)
21.01.2015 18:00 -0,7 C 92 % 1007,8 hPa 0,0 l/m O 0,00 h 0 W/m 16,5 km/h (3 Bft)
21.01.2015 19:00 -0,7 C 92 % 1008,1 hPa 0,0 l/m O 0,00 h 0 W/m 12,9 km/h (3 Bft)
21.01.2015 20:00 -0,8 C 93 % 1008,1 hPa 0,0 l/m O 0,00 h 0 W/m 10,5 km/h (2 Bft)
21.01.2015 21:00 -0,9 C 93 % 1008,1 hPa 0,0 l/m O 0,00 h 0 W/m 13,4 km/h (3 Bft)
21.01.2015 22:00 -0,9 C 93 % 1008,2 hPa 0,0 l/m O-NO 0,00 h 0 W/m 8,6 km/h (2 Bft)
21.01.2015 23:00 -1,0 C 94 % 1008,4 hPa 0,0 l/m O-NO 0,00 h 0 W/m 9,8 km/h (2 Bft)
22.01.2015 00:00 -1,1 C 94 % 1008,3 hPa 0,0 l/m O-NO 0,00 h 0 W/m 9,1 km/h (2 Bft)
22.01.2015 01:00 -1,2 C 94 % 1008,2 hPa 0,0 l/m O-NO 0,00 h 0 W/m 10,5 km/h (2 Bft)
22.01.2015 02:00 -1,1 C 95 % 1008,3 hPa 0,0 l/m O-NO 0,00 h 0 W/m 9,9 km/h (2 Bft)
22.01.2015 03:00 -1,1 C 95 % 1008,2 hPa 0,0 l/m O-NO 0,00 h 0 W/m 10,1 km/h (2 Bft)
22.01.2015 04:00 -1,1 C 95 % 1008,1 hPa 0,0 l/m O-NO 0,00 h 0 W/m 8,8 km/h (2 Bft)
22.01.2015 05:00 -1,1 C 96 % 1008,3 hPa 0,0 l/m O-NO 0,00 h 0 W/m 10,1 km/h (2 Bft)
22.01.2015 06:00 -1,2 C 96 % 1008,6 hPa 0,0 l/m O-NO 0,00 h 0 W/m 8,6 km/h (2 Bft)
22.01.2015 07:00 -1,2 C 96 % 1009,1 hPa 0,0 l/m NO 0,00 h 0 W/m 7,5 km/h (2 Bft)
22.01.2015 08:00 -1,3 C 96 % 1009,9 hPa 0,0 l/m NO 0,00 h 7 W/m 4,3 km/h (1 Bft)
22.01.2015 09:00 -1,3 C 96 % 1010,8 hPa 0,0 l/m NO 0,00 h 17 W/m 3,1 km/h (1 Bft)
22.01.2015 10:00 -1,2 C 96 % 1011,4 hPa 0,0 l/m N 0,00 h 32 W/m 0,7 km/h (0 Bft)
22.01.2015 11:00 -0,9 C 96 % 1011,8 hPa 0,0 l/m N 0,00 h 24 W/m 0,4 km/h (0 Bft)
22.01.2015 12:00 -0,9 C 96 % 1012,0 hPa 0,0 l/m N 0,00 h 57 W/m 1,6 km/h (1 Bft)
22.01.2015 13:00 -0,4 C 96 % 1012,1 hPa 0,0 l/m NO 0,00 h 86 W/m 2,0 km/h (1 Bft)
22.01.2015 14:00 -0,2 C 96 % 1012,4 hPa 0,0 l/m N 0,00 h 59 W/m 1,6 km/h (1 Bft)
22.01.2015 15:00 -0,2 C 95 % 1012,7 hPa 0,0 l/m N-NO 0,00 h 29 W/m 3,6 km/h (1 Bft)
22.01.2015 16:00 -0,5 C 94 % 1013,3 hPa 0,0 l/m N 0,00 h 7 W/m 3,1 km/h (1 Bft)
22.01.2015 17:00 -0,7 C 95 % 1013,9 hPa 0,0 l/m N 0,00 h 0 W/m 2,7 km/h (1 Bft)
22.01.2015 18:00 -0,8 C 95 % 1014,7 hPa 0,0 l/m NW 0,00 h 0 W/m 2,3 km/h (1 Bft)
22.01.2015 19:00 -0,8 C 95 % 1015,4 hPa 0,0 l/m N 0,00 h 0 W/m 0,3 km/h (0 Bft)
22.01.2015 20:00 -0,8 C 96 % 1015,7 hPa 0,0 l/m NW 0,00 h 0 W/m 2,1 km/h (1 Bft)
22.01.2015 21:00 -0,9 C 96 % 1016,0 hPa 0,0 l/m N 0,00 h 0 W/m 1,7 km/h (1 Bft)
22.01.2015 22:00 -1,0 C 96 % 1016,2 hPa 0,0 l/m NW 0,00 h 0 W/m 3,1 km/h (1 Bft)
22.01.2015 23:00 -1,1 C 96 % 1016,6 hPa 0,0 l/m N 0,00 h 0 W/m 3,5 km/h (1 Bft)
23.01.2015 00:00 -1,2 C 96 % 1016,9 hPa 0,0 l/m N 0,00 h 0 W/m 2,0 km/h (1 Bft)
23.01.2015 01:00 -1,2 C 96 % 1017,1 hPa 0,0 l/m N 0,00 h 0 W/m 1,9 km/h (1 Bft)
23.01.2015 02:00 -1,3 C 95 % 1017,5 hPa 0,0 l/m NW 0,00 h 0 W/m 1,2 km/h (1 Bft)
23.01.2015 03:00 -1,3 C 95 % 1017,7 hPa 0,0 l/m N 0,00 h 0 W/m 0,1 km/h (0 Bft)
23.01.2015 04:00 -1,3 C 96 % 1018,0 hPa 0,0 l/m N 0,00 h 0 W/m 0,3 km/h (0 Bft)
23.01.2015 05:00 -1,3 C 96 % 1018,3 hPa 0,0 l/m NW 0,00 h 0 W/m 1,9 km/h (1 Bft)
23.01.2015 06:00 -1,3 C 96 % 1018,6 hPa 0,0 l/m N 0,00 h 0 W/m 0,7 km/h (0 Bft)
23.01.2015 07:00 -1,3 C 96 % 1019,1 hPa 0,2 l/m N 0,00 h 0 W/m 0,7 km/h (0 Bft)
23.01.2015 08:00 -1,3 C 96 % 1019,7 hPa 0,0 l/m N 0,00 h 7 W/m 0,1 km/h (0 Bft)
23.01.2015 09:00 -1,2 C 96 % 1020,1 hPa 0,0 l/m N 0,00 h 23 W/m 0,0 km/h (0 Bft)
23.01.2015 10:00 -0,8 C 96 % 1020,7 hPa 0,0 l/m N 0,00 h 31 W/m 0,3 km/h (0 Bft)
23.01.2015 11:00 -0,4 C 96 % 1021,0 hPa 0,0 l/m N 0,00 h 50 W/m 1,5 km/h (1 Bft)
23.01.2015 12:00 -0,1 C 95 % 1020,9 hPa 0,0 l/m N 0,00 h 43 W/m 2,8 km/h (1 Bft)
23.01.2015 13:00 0,2 C 95 % 1020,7 hPa 0,0 l/m N 0,00 h 44 W/m 3,6 km/h (1 Bft)
23.01.2015 14:00 0,3 C 95 % 1020,8 hPa 0,0 l/m NW 0,00 h 40 W/m 3,5 km/h (1 Bft)
23.01.2015 15:00 0,4 C 95 % 1021,3 hPa 0,0 l/m N 0,00 h 20 W/m 2,5 km/h (1 Bft)
23.01.2015 16:00 0,2 C 95 % 1021,9 hPa 0,0 l/m NW 0,00 h 8 W/m 4,8 km/h (1 Bft)
23.01.2015 17:00 0,0 C 95 % 1022,5 hPa 0,0 l/m NW 0,00 h 0 W/m 5,7 km/h (1 Bft)
23.01.2015 18:00 -0,1 C 95 % 1022,9 hPa 0,0 l/m NW 0,00 h 0 W/m 4,8 km/h (1 Bft)
23.01.2015 19:00 -0,1 C 96 % 1023,2 hPa 0,0 l/m NW 0,00 h 0 W/m 5,3 km/h (1 Bft)
23.01.2015 20:00 -0,3 C 96 % 1023,2 hPa 0,0 l/m NW 0,00 h 0 W/m 6,3 km/h (2 Bft)
23.01.2015 21:00 -0,4 C 96 % 1023,2 hPa 0,0 l/m N-NW 0,00 h 0 W/m 7,5 km/h (2 Bft)
23.01.2015 22:00 -0,5 C 96 % 1023,3 hPa 0,0 l/m N-NW 0,00 h 0 W/m 6,7 km/h (2 Bft)
23.01.2015 23:00 -0,6 C 96 % 1023,4 hPa 0,0 l/m N-NW 0,00 h 0 W/m 2,4 km/h (1 Bft)
24.01.2015 00:00 -0,6 C 96 % 1023,2 hPa 0,0 l/m N 0,00 h 0 W/m 1,2 km/h (1 Bft)
24.01.2015 01:00 -0,6 C 96 % 1023,2 hPa 0,0 l/m N 0,00 h 0 W/m 0,4 km/h (0 Bft)
24.01.2015 02:00 -0,7 C 96 % 1022,9 hPa 0,0 l/m N 0,00 h 0 W/m 1,2 km/h (1 Bft)
24.01.2015 03:00 -0,7 C 95 % 1022,5 hPa 0,0 l/m N 0,00 h 0 W/m 2,0 km/h (1 Bft)
24.01.2015 04:00 -0,7 C 96 % 1022,2 hPa 0,0 l/m N 0,00 h 0 W/m 0,3 km/h (0 Bft)
24.01.2015 05:00 -0,7 C 96 % 1021,9 hPa 0,0 l/m N 0,00 h 0 W/m 0,0 km/h (0 Bft)
24.01.2015 06:00 -0,7 C 96 % 1021,7 hPa 0,0 l/m N 0,00 h 0 W/m 0,0 km/h (0 Bft)
24.01.2015 07:00 -0,7 C 96 % 1021,6 hPa 0,0 l/m N 0,00 h 0 W/m 1,2 km/h (1 Bft)
24.01.2015 08:00 -0,7 C 96 % 1021,5 hPa 0,0 l/m N 0,00 h 11 W/m 2,4 km/h (1 Bft)
24.01.2015 09:00 -0,5 C 96 % 1021,3 hPa 0,0 l/m N 0,00 h 37 W/m 1,6 km/h (1 Bft)
24.01.2015 10:00 -0,0 C 96 % 1020,9 hPa 0,0 l/m N-NW 0,00 h 45 W/m 4,5 km/h (1 Bft)
24.01.2015 11:00 0,2 C 95 % 1020,4 hPa 0,0 l/m NW 0,00 h 50 W/m 5,5 km/h (1 Bft)
24.01.2015 12:00 0,4 C 94 % 1019,6 hPa 0,0 l/m W 0,00 h 55 W/m 6,3 km/h (2 Bft)
24.01.2015 13:00 0,6 C 93 % 1019,0 hPa 0,0 l/m W 0,00 h 61 W/m 7,3 km/h (2 Bft)
24.01.2015 14:00 0,8 C 91 % 1018,7 hPa 0,0 l/m W 0,00 h 83 W/m 10,1 km/h (2 Bft)
24.01.2015 15:00 0,9 C 89 % 1018,9 hPa 0,0 l/m W 0,00 h 33 W/m 9,0 km/h (2 Bft)
24.01.2015 16:00 0,6 C 88 % 1019,4 hPa 0,0 l/m W-SW 0,00 h 9 W/m 6,4 km/h (2 Bft)
24.01.2015 17:00 0,3 C 89 % 1020,1 hPa 0,0 l/m W 0,00 h 0 W/m 9,9 km/h (2 Bft)
24.01.2015 18:00 0,2 C 89 % 1020,7 hPa 0,0 l/m W 0,00 h 0 W/m 7,2 km/h (2 Bft)
24.01.2015 19:00 0,1 C 90 % 1021,5 hPa 0,0 l/m N 0,00 h 0 W/m 1,7 km/h (1 Bft)
24.01.2015 20:00 -0,1 C 90 % 1022,0 hPa 0,0 l/m W 0,00 h 0 W/m 7,6 km/h (2 Bft)
24.01.2015 21:00 -0,3 C 91 % 1022,7 hPa 0,0 l/m NW 0,00 h 0 W/m 10,2 km/h (2 Bft)
24.01.2015 22:00 -0,6 C 92 % 1023,1 hPa 0,0 l/m NW 0,00 h 0 W/m 5,1 km/h (1 Bft)
24.01.2015 23:00 -0,8 C 92 % 1023,3 hPa 0,0 l/m W-NW 0,00 h 0 W/m 5,3 km/h (1 Bft)
25.01.2015 00:00 -0,9 C 91 % 1023,7 hPa 0,0 l/m W-NW 0,00 h 0 W/m 3,9 km/h (1 Bft)
25.01.2015 01:00 -1,0 C 93 % 1023,8 hPa 0,2 l/m N 0,00 h 0 W/m 2,9 km/h (1 Bft)
25.01.2015 02:00 -1,1 C 94 % 1024,2 hPa 0,6 l/m N 0,00 h 0 W/m 1,3 km/h (1 Bft)
25.01.2015 03:00 -1,2 C 95 % 1024,6 hPa 0,6 l/m N 0,00 h 0 W/m 0,9 km/h (0 Bft)
25.01.2015 04:00 -1,1 C 95 % 1025,2 hPa 0,6 l/m NW 0,00 h 0 W/m 2,3 km/h (1 Bft)
25.01.2015 05:00 -0,9 C 96 % 1025,9 hPa 0,0 l/m N-NW 0,00 h 0 W/m 8,8 km/h (2 Bft)
25.01.2015 06:00 -0,9 C 96 % 1026,8 hPa 0,0 l/m N-NW 0,00 h 0 W/m 6,1 km/h (2 Bft)
25.01.2015 07:00 -1,2 C 95 % 1027,5 hPa 0,0 l/m N 0,00 h 0 W/m 2,0 km/h (1 Bft)
25.01.2015 08:00 -2,0 C 94 % 1028,3 hPa 0,0 l/m N-NW 0,00 h 7 W/m 2,8 km/h (1 Bft)
25.01.2015 09:00 -1,7 C 95 % 1028,8 hPa 0,0 l/m N-NW 0,00 h 29 W/m 4,9 km/h (1 Bft)
25.01.2015 10:00 -0,5 C 94 % 1029,4 hPa 0,0 l/m N-NW 0,00 h 48 W/m 5,2 km/h (1 Bft)
25.01.2015 11:00 0,2 C 92 % 1029,6 hPa 0,0 l/m N-NW 0,00 h 87 W/m 3,7 km/h (1 Bft)
25.01.2015 12:00 0,7 C 89 % 1029,3 hPa 0,0 l/m N-NW 0,00 h 108 W/m 4,5 km/h (1 Bft)
25.01.2015 13:00 0,6 C 87 % 1028,8 hPa 0,0 l/m N-NW 0,00 h 91 W/m 3,2 km/h (1 Bft)
25.01.2015 14:00 0,2 C 88 % 1028,6 hPa 0,0 l/m N 0,00 h 61 W/m 2,8 km/h (1 Bft)
25.01.2015 15:00 0,2 C 89 % 1028,7 hPa 0,0 l/m N 0,00 h 57 W/m 0,9 km/h (0 Bft)
25.01.2015 16:00 -0,2 C 90 % 1028,7 hPa 0,0 l/m N-NW 0,00 h 24 W/m 2,0 km/h (1 Bft)
25.01.2015 17:00 -0,3 C 91 % 1029,1 hPa 0,0 l/m N 0,00 h 5 W/m 1,5 km/h (1 Bft)
25.01.2015 18:00 -0,6 C 92 % 1029,2 hPa 0,0 l/m N-NW 0,00 h 0 W/m 2,0 km/h (1 Bft)
25.01.2015 19:00 -0,9 C 92 % 1029,3 hPa 0,0 l/m N 0,00 h 0 W/m 2,0 km/h (1 Bft)
25.01.2015 20:00 -0,9 C 92 % 1029,3 hPa 0,0 l/m N 0,00 h 0 W/m 0,7 km/h (0 Bft)
25.01.2015 21:00 -1,0 C 92 % 1028,9 hPa 0,0 l/m N-NW 0,00 h 0 W/m 3,3 km/h (1 Bft)
25.01.2015 22:00 -0,8 C 92 % 1028,8 hPa 0,0 l/m N 0,00 h 0 W/m 2,5 km/h (1 Bft)
25.01.2015 23:00 -1,0 C 92 % 1028,6 hPa 0,0 l/m NW 0,00 h 0 W/m 1,6 km/h (1 Bft)
Min-Datum _ 25.01.15 25.01.15 21.01.15 - - - - 19.01.15
_ Min-Zeit 08:35 13:50 17:05 - - - - 00:00
Minimum _ -2,2 C 85 % 1007,5 hPa - - - - 0,0 km/h (0 Bft)
Max-Datum _ 24.01.15 20.01.15 25.01.15 20.01.15 - 19.01.15 19.01.15 21.01.15
_ Max-Zeit 15:15 09:25 11:05 07:25 - 13:25 13:35 14:45
Maximum _ 1,1 C 98 % 1029,8 hPa 1,0 l/m - 0,08 h 445 W/m 20,9 km/h
O-NO (4 Bft)
Durchschnitt _ -0,5 C 95 % 1016,0 hPa #4,8 l/m O-NO #55 min. 51 W/m 4,2 km/h (1 Bft)